sensor_id;sensor_type;location;lat;lon;timestamp;P1;durP1;ratioP1;P2;durP2;ratioP2
4652;SDS011;9900;48.738;9.306;2023-01-24T00:01:21;12.80;;;8.43;;
4652;SDS011;9900;48.738;9.306;2023-01-24T00:03:50;13.07;;;8.83;;
4652;SDS011;9900;48.738;9.306;2023-01-24T00:06:21;15.80;;;9.50;;
4652;SDS011;9900;48.738;9.306;2023-01-24T00:08:50;15.20;;;9.13;;
4652;SDS011;9900;48.738;9.306;2023-01-24T00:11:18;13.70;;;9.10;;
4652;SDS011;9900;48.738;9.306;2023-01-24T00:13:47;13.23;;;8.83;;
4652;SDS011;9900;48.738;9.306;2023-01-24T00:16:16;14.60;;;9.70;;
4652;SDS011;9900;48.738;9.306;2023-01-24T00:18:46;15.00;;;9.13;;
4652;SDS011;9900;48.738;9.306;2023-01-24T00:21:15;15.23;;;9.60;;
4652;SDS011;9900;48.738;9.306;2023-01-24T00:23:47;13.83;;;9.30;;
4652;SDS011;9900;48.738;9.306;2023-01-24T00:26:17;14.97;;;10.03;;
4652;SDS011;9900;48.738;9.306;2023-01-24T00:28:47;13.20;;;8.70;;
4652;SDS011;9900;48.738;9.306;2023-01-24T00:31:16;15.07;;;9.50;;
4652;SDS011;9900;48.738;9.306;2023-01-24T00:33:45;20.40;;;10.30;;
4652;SDS011;9900;48.738;9.306;2023-01-24T00:36:14;15.10;;;9.53;;
4652;SDS011;9900;48.738;9.306;2023-01-24T00:38:42;15.33;;;9.50;;
4652;SDS011;9900;48.738;9.306;2023-01-24T00:41:12;12.37;;;8.33;;
4652;SDS011;9900;48.738;9.306;2023-01-24T00:43:41;13.80;;;9.50;;
4652;SDS011;9900;48.738;9.306;2023-01-24T00:46:10;12.23;;;8.80;;
4652;SDS011;9900;48.738;9.306;2023-01-24T00:48:38;13.90;;;9.40;;
4652;SDS011;9900;48.738;9.306;2023-01-24T00:51:07;15.70;;;10.30;;
4652;SDS011;9900;48.738;9.306;2023-01-24T00:53:36;11.17;;;8.37;;
4652;SDS011;9900;48.738;9.306;2023-01-24T00:56:05;15.63;;;10.00;;
4652;SDS011;9900;48.738;9.306;2023-01-24T00:58:36;19.03;;;10.13;;
4652;SDS011;9900;48.738;9.306;2023-01-24T01:01:05;13.40;;;8.63;;
4652;SDS011;9900;48.738;9.306;2023-01-24T01:03:33;13.20;;;9.23;;
4652;SDS011;9900;48.738;9.306;2023-01-24T01:06:02;16.70;;;9.50;;
4652;SDS011;9900;48.738;9.306;2023-01-24T01:08:32;16.00;;;9.60;;
4652;SDS011;9900;48.738;9.306;2023-01-24T01:11:02;15.70;;;9.67;;
4652;SDS011;9900;48.738;9.306;2023-01-24T01:13:30;11.43;;;8.40;;
4652;SDS011;9900;48.738;9.306;2023-01-24T01:16:01;14.27;;;9.53;;
4652;SDS011;9900;48.738;9.306;2023-01-24T01:18:30;13.00;;;8.47;;
4652;SDS011;9900;48.738;9.306;2023-01-24T01:20:59;13.33;;;9.03;;
4652;SDS011;9900;48.738;9.306;2023-01-24T01:23:28;14.60;;;9.70;;
4652;SDS011;9900;48.738;9.306;2023-01-24T01:25:59;15.50;;;10.03;;
4652;SDS011;9900;48.738;9.306;2023-01-24T01:28:28;14.47;;;9.17;;
4652;SDS011;9900;48.738;9.306;2023-01-24T01:30:58;14.13;;;9.20;;
4652;SDS011;9900;48.738;9.306;2023-01-24T01:33:28;13.13;;;9.70;;
4652;SDS011;9900;48.738;9.306;2023-01-24T01:35:56;15.17;;;9.63;;
4652;SDS011;9900;48.738;9.306;2023-01-24T01:38:25;14.23;;;9.57;;
4652;SDS011;9900;48.738;9.306;2023-01-24T01:40:55;13.97;;;9.60;;
4652;SDS011;9900;48.738;9.306;2023-01-24T01:43:25;13.90;;;9.17;;
4652;SDS011;9900;48.738;9.306;2023-01-24T01:45:54;15.53;;;9.87;;
4652;SDS011;9900;48.738;9.306;2023-01-24T01:48:32;14.90;;;9.30;;
4652;SDS011;9900;48.738;9.306;2023-01-24T01:51:04;14.97;;;10.23;;
4652;SDS011;9900;48.738;9.306;2023-01-24T01:53:37;12.77;;;9.03;;
4652;SDS011;9900;48.738;9.306;2023-01-24T01:56:11;15.07;;;9.50;;
4652;SDS011;9900;48.738;9.306;2023-01-24T01:58:42;18.77;;;10.10;;
4652;SDS011;9900;48.738;9.306;2023-01-24T02:01:11;15.10;;;9.30;;
4652;SDS011;9900;48.738;9.306;2023-01-24T02:03:42;18.47;;;11.00;;
4652;SDS011;9900;48.738;9.306;2023-01-24T02:06:15;13.73;;;8.60;;
4652;SDS011;9900;48.738;9.306;2023-01-24T02:08:50;14.20;;;9.07;;
4652;SDS011;9900;48.738;9.306;2023-01-24T02:11:19;13.60;;;9.23;;
4652;SDS011;9900;48.738;9.306;2023-01-24T02:14:07;16.30;;;10.37;;
4652;SDS011;9900;48.738;9.306;2023-01-24T02:16:55;13.83;;;9.33;;
4652;SDS011;9900;48.738;9.306;2023-01-24T02:22:29;14.70;;;9.53;;
4652;SDS011;9900;48.738;9.306;2023-01-24T02:25:03;14.10;;;9.63;;
4652;SDS011;9900;48.738;9.306;2023-01-24T02:27:38;13.50;;;9.30;;
4652;SDS011;9900;48.738;9.306;2023-01-24T02:30:08;14.00;;;8.93;;
4652;SDS011;9900;48.738;9.306;2023-01-24T02:32:38;16.17;;;9.90;;
4652;SDS011;9900;48.738;9.306;2023-01-24T02:35:19;14.20;;;9.30;;
4652;SDS011;9900;48.738;9.306;2023-01-24T02:37:51;14.87;;;8.90;;
4652;SDS011;9900;48.738;9.306;2023-01-24T02:40:20;15.90;;;9.57;;
4652;SDS011;9900;48.738;9.306;2023-01-24T02:42:51;15.60;;;10.30;;
4652;SDS011;9900;48.738;9.306;2023-01-24T02:45:21;16.23;;;9.80;;
4652;SDS011;9900;48.738;9.306;2023-01-24T02:47:52;16.50;;;9.67;;
4652;SDS011;9900;48.738;9.306;2023-01-24T02:50:22;16.70;;;9.63;;
4652;SDS011;9900;48.738;9.306;2023-01-24T02:52:52;16.97;;;9.57;;
4652;SDS011;9900;48.738;9.306;2023-01-24T02:55:38;17.70;;;9.80;;
4652;SDS011;9900;48.738;9.306;2023-01-24T02:58:28;15.70;;;10.53;;
4652;SDS011;9900;48.738;9.306;2023-01-24T03:00:56;15.10;;;9.70;;
4652;SDS011;9900;48.738;9.306;2023-01-24T03:03:25;15.10;;;9.80;;
4652;SDS011;9900;48.738;9.306;2023-01-24T03:05:53;13.40;;;8.93;;
4652;SDS011;9900;48.738;9.306;2023-01-24T03:08:25;13.83;;;8.80;;
4652;SDS011;9900;48.738;9.306;2023-01-24T03:10:54;21.63;;;10.50;;
4652;SDS011;9900;48.738;9.306;2023-01-24T03:13:24;15.70;;;10.10;;
4652;SDS011;9900;48.738;9.306;2023-01-24T03:16:12;12.77;;;9.60;;
4652;SDS011;9900;48.738;9.306;2023-01-24T03:18:59;13.43;;;8.47;;
4652;SDS011;9900;48.738;9.306;2023-01-24T03:21:45;17.57;;;10.77;;
4652;SDS011;9900;48.738;9.306;2023-01-24T03:24:32;16.40;;;9.63;;
4652;SDS011;9900;48.738;9.306;2023-01-24T03:27:18;15.00;;;9.17;;
4652;SDS011;9900;48.738;9.306;2023-01-24T03:30:04;13.77;;;9.87;;
4652;SDS011;9900;48.738;9.306;2023-01-24T03:32:53;18.43;;;10.73;;
4652;SDS011;9900;48.738;9.306;2023-01-24T03:35:44;16.27;;;9.27;;
4652;SDS011;9900;48.738;9.306;2023-01-24T03:38:21;15.90;;;9.97;;
4652;SDS011;9900;48.738;9.306;2023-01-24T03:41:07;14.77;;;9.13;;
4652;SDS011;9900;48.738;9.306;2023-01-24T03:43:36;17.43;;;9.80;;
4652;SDS011;9900;48.738;9.306;2023-01-24T03:46:04;13.10;;;8.83;;
4652;SDS011;9900;48.738;9.306;2023-01-24T03:48:34;14.93;;;9.90;;
4652;SDS011;9900;48.738;9.306;2023-01-24T03:51:03;15.00;;;10.23;;
4652;SDS011;9900;48.738;9.306;2023-01-24T03:53:50;15.27;;;9.37;;
4652;SDS011;9900;48.738;9.306;2023-01-24T03:56:19;18.23;;;10.17;;
4652;SDS011;9900;48.738;9.306;2023-01-24T03:58:47;15.10;;;9.40;;
4652;SDS011;9900;48.738;9.306;2023-01-24T04:01:16;15.23;;;9.57;;
4652;SDS011;9900;48.738;9.306;2023-01-24T04:03:46;15.47;;;9.63;;
4652;SDS011;9900;48.738;9.306;2023-01-24T04:06:14;16.20;;;10.00;;
4652;SDS011;9900;48.738;9.306;2023-01-24T04:08:45;17.47;;;9.40;;
4652;SDS011;9900;48.738;9.306;2023-01-24T04:11:14;13.03;;;8.93;;
4652;SDS011;9900;48.738;9.306;2023-01-24T04:13:43;14.33;;;9.40;;
4652;SDS011;9900;48.738;9.306;2023-01-24T04:16:11;17.30;;;11.40;;
4652;SDS011;9900;48.738;9.306;2023-01-24T04:18:43;17.50;;;10.80;;
4652;SDS011;9900;48.738;9.306;2023-01-24T04:21:13;19.33;;;10.10;;
4652;SDS011;9900;48.738;9.306;2023-01-24T04:23:41;14.77;;;9.53;;
4652;SDS011;9900;48.738;9.306;2023-01-24T04:26:10;17.13;;;10.70;;
4652;SDS011;9900;48.738;9.306;2023-01-24T04:28:39;16.20;;;10.17;;
4652;SDS011;9900;48.738;9.306;2023-01-24T04:31:08;15.50;;;9.40;;
4652;SDS011;9900;48.738;9.306;2023-01-24T04:33:37;19.20;;;11.30;;
4652;SDS011;9900;48.738;9.306;2023-01-24T04:36:06;15.80;;;9.80;;
4652;SDS011;9900;48.738;9.306;2023-01-24T04:38:37;18.30;;;10.70;;
4652;SDS011;9900;48.738;9.306;2023-01-24T04:41:06;16.23;;;9.80;;
4652;SDS011;9900;48.738;9.306;2023-01-24T04:43:39;15.43;;;9.77;;
4652;SDS011;9900;48.738;9.306;2023-01-24T04:46:07;23.70;;;10.67;;
4652;SDS011;9900;48.738;9.306;2023-01-24T04:48:36;14.90;;;9.37;;
4652;SDS011;9900;48.738;9.306;2023-01-24T04:51:05;16.23;;;10.57;;
4652;SDS011;9900;48.738;9.306;2023-01-24T04:53:33;18.50;;;10.00;;
4652;SDS011;9900;48.738;9.306;2023-01-24T04:56:04;16.40;;;10.90;;
4652;SDS011;9900;48.738;9.306;2023-01-24T04:58:33;17.60;;;10.67;;
4652;SDS011;9900;48.738;9.306;2023-01-24T05:01:02;15.53;;;10.20;;
4652;SDS011;9900;48.738;9.306;2023-01-24T05:03:31;18.10;;;9.73;;
4652;SDS011;9900;48.738;9.306;2023-01-24T05:06:00;19.37;;;10.87;;
4652;SDS011;9900;48.738;9.306;2023-01-24T05:08:28;18.17;;;10.10;;
4652;SDS011;9900;48.738;9.306;2023-01-24T05:10:59;18.87;;;10.73;;
4652;SDS011;9900;48.738;9.306;2023-01-24T05:13:30;16.70;;;10.10;;
4652;SDS011;9900;48.738;9.306;2023-01-24T05:15:58;18.63;;;11.20;;
4652;SDS011;9900;48.738;9.306;2023-01-24T05:18:27;16.13;;;10.00;;
4652;SDS011;9900;48.738;9.306;2023-01-24T05:20:56;17.43;;;9.60;;
4652;SDS011;9900;48.738;9.306;2023-01-24T05:23:32;17.37;;;9.90;;
4652;SDS011;9900;48.738;9.306;2023-01-24T05:26:01;16.97;;;10.30;;
4652;SDS011;9900;48.738;9.306;2023-01-24T05:28:32;18.50;;;9.53;;
4652;SDS011;9900;48.738;9.306;2023-01-24T05:31:01;18.70;;;11.40;;
4652;SDS011;9900;48.738;9.306;2023-01-24T05:33:32;17.70;;;10.50;;
4652;SDS011;9900;48.738;9.306;2023-01-24T05:36:00;17.90;;;11.10;;
4652;SDS011;9900;48.738;9.306;2023-01-24T05:38:30;16.23;;;10.37;;
4652;SDS011;9900;48.738;9.306;2023-01-24T05:40:59;17.13;;;10.30;;
4652;SDS011;9900;48.738;9.306;2023-01-24T05:43:28;16.40;;;9.90;;
4652;SDS011;9900;48.738;9.306;2023-01-24T05:45:59;16.57;;;10.43;;
4652;SDS011;9900;48.738;9.306;2023-01-24T05:48:28;16.67;;;9.67;;
4652;SDS011;9900;48.738;9.306;2023-01-24T05:50:57;19.67;;;11.13;;
4652;SDS011;9900;48.738;9.306;2023-01-24T05:53:27;17.27;;;11.13;;
4652;SDS011;9900;48.738;9.306;2023-01-24T05:55:57;17.30;;;11.00;;
4652;SDS011;9900;48.738;9.306;2023-01-24T05:58:29;17.87;;;10.73;;
4652;SDS011;9900;48.738;9.306;2023-01-24T06:01:04;16.90;;;10.30;;
4652;SDS011;9900;48.738;9.306;2023-01-24T06:03:35;14.43;;;9.37;;
4652;SDS011;9900;48.738;9.306;2023-01-24T06:06:05;14.87;;;10.30;;
4652;SDS011;9900;48.738;9.306;2023-01-24T06:08:34;17.10;;;10.93;;
4652;SDS011;9900;48.738;9.306;2023-01-24T06:11:04;16.23;;;9.83;;
4652;SDS011;9900;48.738;9.306;2023-01-24T06:13:33;16.63;;;10.70;;
4652;SDS011;9900;48.738;9.306;2023-01-24T06:16:04;16.67;;;9.50;;
4652;SDS011;9900;48.738;9.306;2023-01-24T06:18:35;16.80;;;10.10;;
4652;SDS011;9900;48.738;9.306;2023-01-24T06:21:04;16.83;;;10.00;;
4652;SDS011;9900;48.738;9.306;2023-01-24T06:23:34;17.20;;;10.67;;
4652;SDS011;9900;48.738;9.306;2023-01-24T06:26:03;18.37;;;10.50;;
4652;SDS011;9900;48.738;9.306;2023-01-24T06:28:32;15.90;;;10.87;;
4652;SDS011;9900;48.738;9.306;2023-01-24T06:31:04;16.97;;;10.53;;
4652;SDS011;9900;48.738;9.306;2023-01-24T06:33:40;17.10;;;10.20;;
4652;SDS011;9900;48.738;9.306;2023-01-24T06:36:20;16.17;;;10.47;;
4652;SDS011;9900;48.738;9.306;2023-01-24T06:39:07;16.80;;;9.87;;
4652;SDS011;9900;48.738;9.306;2023-01-24T06:41:38;16.00;;;10.90;;
4652;SDS011;9900;48.738;9.306;2023-01-24T06:44:08;18.23;;;10.40;;
4652;SDS011;9900;48.738;9.306;2023-01-24T06:46:39;17.97;;;10.27;;
4652;SDS011;9900;48.738;9.306;2023-01-24T06:49:09;14.27;;;9.40;;
4652;SDS011;9900;48.738;9.306;2023-01-24T06:51:38;16.70;;;10.90;;
4652;SDS011;9900;48.738;9.306;2023-01-24T06:54:06;17.07;;;10.80;;
4652;SDS011;9900;48.738;9.306;2023-01-24T06:56:35;14.13;;;10.47;;
4652;SDS011;9900;48.738;9.306;2023-01-24T06:59:04;16.57;;;9.47;;
4652;SDS011;9900;48.738;9.306;2023-01-24T07:01:33;17.90;;;11.27;;
4652;SDS011;9900;48.738;9.306;2023-01-24T07:04:03;14.80;;;9.70;;
4652;SDS011;9900;48.738;9.306;2023-01-24T07:06:32;18.23;;;10.40;;
4652;SDS011;9900;48.738;9.306;2023-01-24T07:09:00;17.37;;;10.67;;
4652;SDS011;9900;48.738;9.306;2023-01-24T07:11:29;18.77;;;11.30;;
4652;SDS011;9900;48.738;9.306;2023-01-24T07:13:58;13.67;;;8.90;;
4652;SDS011;9900;48.738;9.306;2023-01-24T07:16:26;15.87;;;10.00;;
4652;SDS011;9900;48.738;9.306;2023-01-24T07:18:55;19.30;;;9.87;;
4652;SDS011;9900;48.738;9.306;2023-01-24T07:21:26;20.50;;;10.27;;
4652;SDS011;9900;48.738;9.306;2023-01-24T07:23:55;17.03;;;9.40;;
4652;SDS011;9900;48.738;9.306;2023-01-24T07:26:25;18.33;;;10.23;;
4652;SDS011;9900;48.738;9.306;2023-01-24T07:28:54;13.80;;;9.50;;
4652;SDS011;9900;48.738;9.306;2023-01-24T07:31:23;13.93;;;8.90;;
4652;SDS011;9900;48.738;9.306;2023-01-24T07:33:51;14.90;;;9.10;;
4652;SDS011;9900;48.738;9.306;2023-01-24T07:36:20;16.70;;;8.37;;
4652;SDS011;9900;48.738;9.306;2023-01-24T07:38:53;17.23;;;10.20;;
4652;SDS011;9900;48.738;9.306;2023-01-24T07:41:22;16.50;;;10.00;;
4652;SDS011;9900;48.738;9.306;2023-01-24T07:43:51;13.70;;;8.70;;
4652;SDS011;9900;48.738;9.306;2023-01-24T07:46:19;13.83;;;9.30;;
4652;SDS011;9900;48.738;9.306;2023-01-24T07:48:48;12.83;;;8.70;;
4652;SDS011;9900;48.738;9.306;2023-01-24T07:51:17;20.37;;;11.07;;
4652;SDS011;9900;48.738;9.306;2023-01-24T07:53:46;17.37;;;10.53;;
4652;SDS011;9900;48.738;9.306;2023-01-24T07:56:16;17.50;;;11.40;;
4652;SDS011;9900;48.738;9.306;2023-01-24T07:58:52;25.67;;;14.23;;
4652;SDS011;9900;48.738;9.306;2023-01-24T08:01:22;17.03;;;10.67;;
4652;SDS011;9900;48.738;9.306;2023-01-24T08:03:53;15.33;;;10.03;;
4652;SDS011;9900;48.738;9.306;2023-01-24T08:06:22;14.80;;;9.10;;
4652;SDS011;9900;48.738;9.306;2023-01-24T08:08:51;15.00;;;9.77;;
4652;SDS011;9900;48.738;9.306;2023-01-24T08:11:21;18.60;;;10.60;;
4652;SDS011;9900;48.738;9.306;2023-01-24T08:13:50;18.13;;;10.03;;
4652;SDS011;9900;48.738;9.306;2023-01-24T08:16:18;13.57;;;8.83;;
4652;SDS011;9900;48.738;9.306;2023-01-24T08:18:51;13.43;;;8.10;;
4652;SDS011;9900;48.738;9.306;2023-01-24T08:21:19;14.60;;;8.17;;
4652;SDS011;9900;48.738;9.306;2023-01-24T08:23:48;12.60;;;8.63;;
4652;SDS011;9900;48.738;9.306;2023-01-24T08:26:17;10.70;;;7.73;;
4652;SDS011;9900;48.738;9.306;2023-01-24T08:28:49;14.00;;;9.07;;
4652;SDS011;9900;48.738;9.306;2023-01-24T08:31:17;14.53;;;8.30;;
4652;SDS011;9900;48.738;9.306;2023-01-24T08:33:46;15.27;;;8.87;;
4652;SDS011;9900;48.738;9.306;2023-01-24T08:36:15;14.00;;;8.47;;
4652;SDS011;9900;48.738;9.306;2023-01-24T08:38:43;13.63;;;8.57;;
4652;SDS011;9900;48.738;9.306;2023-01-24T08:41:12;15.30;;;9.17;;
4652;SDS011;9900;48.738;9.306;2023-01-24T08:43:41;12.73;;;8.30;;
4652;SDS011;9900;48.738;9.306;2023-01-24T08:46:11;14.17;;;8.73;;
4652;SDS011;9900;48.738;9.306;2023-01-24T08:48:40;14.40;;;8.40;;
4652;SDS011;9900;48.738;9.306;2023-01-24T08:51:08;14.40;;;9.23;;
4652;SDS011;9900;48.738;9.306;2023-01-24T08:53:37;15.27;;;8.27;;
4652;SDS011;9900;48.738;9.306;2023-01-24T08:56:06;13.70;;;8.70;;
4652;SDS011;9900;48.738;9.306;2023-01-24T08:58:35;13.10;;;8.60;;
4652;SDS011;9900;48.738;9.306;2023-01-24T09:01:05;14.13;;;8.50;;
4652;SDS011;9900;48.738;9.306;2023-01-24T09:03:35;11.13;;;8.40;;
4652;SDS011;9900;48.738;9.306;2023-01-24T09:06:05;15.03;;;7.87;;
4652;SDS011;9900;48.738;9.306;2023-01-24T09:08:33;13.37;;;8.53;;
4652;SDS011;9900;48.738;9.306;2023-01-24T09:11:03;11.27;;;7.90;;
4652;SDS011;9900;48.738;9.306;2023-01-24T09:13:32;12.90;;;8.70;;
4652;SDS011;9900;48.738;9.306;2023-01-24T09:16:00;15.30;;;9.03;;
4652;SDS011;9900;48.738;9.306;2023-01-24T09:18:29;14.80;;;9.20;;
4652;SDS011;9900;48.738;9.306;2023-01-24T09:21:02;15.80;;;9.13;;
4652;SDS011;9900;48.738;9.306;2023-01-24T09:23:31;11.20;;;8.17;;
4652;SDS011;9900;48.738;9.306;2023-01-24T09:26:00;13.10;;;8.27;;
4652;SDS011;9900;48.738;9.306;2023-01-24T09:28:29;13.40;;;8.60;;
4652;SDS011;9900;48.738;9.306;2023-01-24T09:30:57;18.73;;;8.50;;
4652;SDS011;9900;48.738;9.306;2023-01-24T09:33:26;12.93;;;8.07;;
4652;SDS011;9900;48.738;9.306;2023-01-24T09:35:56;13.70;;;8.33;;
4652;SDS011;9900;48.738;9.306;2023-01-24T09:38:27;12.03;;;8.23;;
4652;SDS011;9900;48.738;9.306;2023-01-24T09:41:00;12.60;;;8.00;;
4652;SDS011;9900;48.738;9.306;2023-01-24T09:43:37;12.80;;;7.83;;
4652;SDS011;9900;48.738;9.306;2023-01-24T09:46:21;16.50;;;8.50;;
4652;SDS011;9900;48.738;9.306;2023-01-24T09:48:54;12.07;;;7.77;;
4652;SDS011;9900;48.738;9.306;2023-01-24T09:51:29;12.27;;;7.27;;
4652;SDS011;9900;48.738;9.306;2023-01-24T09:54:01;12.20;;;7.70;;
4652;SDS011;9900;48.738;9.306;2023-01-24T09:56:33;11.87;;;7.77;;
4652;SDS011;9900;48.738;9.306;2023-01-24T09:59:10;10.73;;;7.30;;
4652;SDS011;9900;48.738;9.306;2023-01-24T10:01:42;13.20;;;8.20;;
4652;SDS011;9900;48.738;9.306;2023-01-24T10:04:15;12.90;;;7.47;;
4652;SDS011;9900;48.738;9.306;2023-01-24T10:09:39;12.10;;;8.13;;
4652;SDS011;9900;48.738;9.306;2023-01-24T10:12:14;12.03;;;8.17;;
4652;SDS011;9900;48.738;9.306;2023-01-24T10:14:51;10.47;;;7.80;;
4652;SDS011;9900;48.738;9.306;2023-01-24T10:17:31;13.00;;;6.90;;
4652;SDS011;9900;48.738;9.306;2023-01-24T10:20:30;11.30;;;7.43;;
4652;SDS011;9900;48.738;9.306;2023-01-24T10:23:05;13.23;;;7.20;;
4652;SDS011;9900;48.738;9.306;2023-01-24T10:25:43;11.40;;;7.00;;
4652;SDS011;9900;48.738;9.306;2023-01-24T10:28:23;12.57;;;7.70;;
4652;SDS011;9900;48.738;9.306;2023-01-24T10:31:00;13.60;;;7.50;;
4652;SDS011;9900;48.738;9.306;2023-01-24T10:33:33;12.57;;;7.17;;
4652;SDS011;9900;48.738;9.306;2023-01-24T10:36:06;14.13;;;8.37;;
4652;SDS011;9900;48.738;9.306;2023-01-24T10:38:38;18.33;;;7.30;;
4652;SDS011;9900;48.738;9.306;2023-01-24T10:41:16;10.50;;;7.30;;
4652;SDS011;9900;48.738;9.306;2023-01-24T10:43:49;12.07;;;7.57;;
4652;SDS011;9900;48.738;9.306;2023-01-24T10:49:13;13.13;;;7.60;;
4652;SDS011;9900;48.738;9.306;2023-01-24T10:51:56;9.57;;;6.13;;
4652;SDS011;9900;48.738;9.306;2023-01-24T10:54:43;10.73;;;7.03;;
4652;SDS011;9900;48.738;9.306;2023-01-24T10:57:18;14.93;;;8.30;;
4652;SDS011;9900;48.738;9.306;2023-01-24T10:59:49;9.33;;;6.53;;
4652;SDS011;9900;48.738;9.306;2023-01-24T11:02:19;11.17;;;7.67;;
4652;SDS011;9900;48.738;9.306;2023-01-24T11:04:52;14.60;;;7.77;;
4652;SDS011;9900;48.738;9.306;2023-01-24T11:07:25;13.40;;;7.57;;
4652;SDS011;9900;48.738;9.306;2023-01-24T11:09:58;12.03;;;7.07;;
4652;SDS011;9900;48.738;9.306;2023-01-24T11:12:29;10.17;;;6.80;;
4652;SDS011;9900;48.738;9.306;2023-01-24T11:14:57;18.40;;;7.77;;
4652;SDS011;9900;48.738;9.306;2023-01-24T11:17:30;12.33;;;6.73;;
4652;SDS011;9900;48.738;9.306;2023-01-24T11:20:01;9.57;;;6.00;;
4652;SDS011;9900;48.738;9.306;2023-01-24T11:22:33;11.93;;;6.23;;
4652;SDS011;9900;48.738;9.306;2023-01-24T11:25:08;14.70;;;6.50;;
4652;SDS011;9900;48.738;9.306;2023-01-24T11:27:47;8.30;;;6.10;;
4652;SDS011;9900;48.738;9.306;2023-01-24T11:30:16;10.87;;;6.73;;
4652;SDS011;9900;48.738;9.306;2023-01-24T11:32:48;12.13;;;6.87;;
4652;SDS011;9900;48.738;9.306;2023-01-24T11:35:22;8.43;;;6.47;;
4652;SDS011;9900;48.738;9.306;2023-01-24T11:40:48;18.70;;;8.20;;
4652;SDS011;9900;48.738;9.306;2023-01-24T11:43:33;10.50;;;5.73;;
4652;SDS011;9900;48.738;9.306;2023-01-24T11:46:10;9.80;;;6.27;;
4652;SDS011;9900;48.738;9.306;2023-01-24T11:48:46;10.20;;;6.73;;
4652;SDS011;9900;48.738;9.306;2023-01-24T11:51:24;7.23;;;5.60;;
4652;SDS011;9900;48.738;9.306;2023-01-24T11:54:07;10.17;;;6.57;;
4652;SDS011;9900;48.738;9.306;2023-01-24T11:56:42;9.10;;;5.87;;
4652;SDS011;9900;48.738;9.306;2023-01-24T12:02:19;15.10;;;6.90;;
4652;SDS011;9900;48.738;9.306;2023-01-24T12:04:58;10.63;;;6.17;;
4652;SDS011;9900;48.738;9.306;2023-01-24T12:07:36;9.30;;;6.07;;
4652;SDS011;9900;48.738;9.306;2023-01-24T12:10:16;9.10;;;5.93;;
4652;SDS011;9900;48.738;9.306;2023-01-24T12:12:49;9.47;;;6.77;;
4652;SDS011;9900;48.738;9.306;2023-01-24T12:15:38;11.73;;;5.80;;
4652;SDS011;9900;48.738;9.306;2023-01-24T12:18:13;9.10;;;6.80;;
4652;SDS011;9900;48.738;9.306;2023-01-24T12:20:58;11.37;;;6.40;;
4652;SDS011;9900;48.738;9.306;2023-01-24T12:23:32;9.87;;;6.13;;
4652;SDS011;9900;48.738;9.306;2023-01-24T12:26:05;9.00;;;6.30;;
4652;SDS011;9900;48.738;9.306;2023-01-24T12:28:39;8.63;;;6.40;;
4652;SDS011;9900;48.738;9.306;2023-01-24T12:31:14;18.73;;;6.10;;
4652;SDS011;9900;48.738;9.306;2023-01-24T12:33:49;7.83;;;5.83;;
4652;SDS011;9900;48.738;9.306;2023-01-24T12:36:23;7.17;;;5.50;;
4652;SDS011;9900;48.738;9.306;2023-01-24T12:38:58;10.03;;;5.83;;
4652;SDS011;9900;48.738;9.306;2023-01-24T12:41:29;8.80;;;6.43;;
4652;SDS011;9900;48.738;9.306;2023-01-24T12:44:00;8.23;;;5.20;;
4652;SDS011;9900;48.738;9.306;2023-01-24T12:46:45;8.23;;;5.90;;
4652;SDS011;9900;48.738;9.306;2023-01-24T12:49:21;12.90;;;6.00;;
4652;SDS011;9900;48.738;9.306;2023-01-24T12:52:14;12.00;;;6.20;;
4652;SDS011;9900;48.738;9.306;2023-01-24T12:54:48;7.03;;;5.00;;
4652;SDS011;9900;48.738;9.306;2023-01-24T12:57:20;9.63;;;6.80;;
4652;SDS011;9900;48.738;9.306;2023-01-24T12:59:53;8.80;;;6.40;;
4652;SDS011;9900;48.738;9.306;2023-01-24T13:02:33;10.80;;;6.07;;
4652;SDS011;9900;48.738;9.306;2023-01-24T13:05:20;6.63;;;5.33;;
4652;SDS011;9900;48.738;9.306;2023-01-24T13:08:00;14.30;;;5.40;;
4652;SDS011;9900;48.738;9.306;2023-01-24T13:10:38;11.07;;;6.37;;
4652;SDS011;9900;48.738;9.306;2023-01-24T13:13:15;7.60;;;5.40;;
4652;SDS011;9900;48.738;9.306;2023-01-24T13:15:50;5.97;;;5.10;;
4652;SDS011;9900;48.738;9.306;2023-01-24T13:18:32;10.00;;;5.60;;
4652;SDS011;9900;48.738;9.306;2023-01-24T13:21:09;10.67;;;5.97;;
4652;SDS011;9900;48.738;9.306;2023-01-24T13:23:46;10.70;;;5.73;;
4652;SDS011;9900;48.738;9.306;2023-01-24T13:26:30;9.00;;;6.50;;
4652;SDS011;9900;48.738;9.306;2023-01-24T13:29:18;8.40;;;5.97;;
4652;SDS011;9900;48.738;9.306;2023-01-24T13:32:01;9.27;;;5.70;;
4652;SDS011;9900;48.738;9.306;2023-01-24T13:34:38;10.87;;;6.73;;
4652;SDS011;9900;48.738;9.306;2023-01-24T13:37:14;10.67;;;6.10;;
4652;SDS011;9900;48.738;9.306;2023-01-24T13:39:46;9.90;;;5.33;;
4652;SDS011;9900;48.738;9.306;2023-01-24T13:42:20;10.50;;;6.80;;
4652;SDS011;9900;48.738;9.306;2023-01-24T13:44:50;10.63;;;7.17;;
4652;SDS011;9900;48.738;9.306;2023-01-24T13:47:22;11.13;;;7.40;;
4652;SDS011;9900;48.738;9.306;2023-01-24T13:50:12;10.57;;;6.90;;
4652;SDS011;9900;48.738;9.306;2023-01-24T13:52:45;10.80;;;6.70;;
4652;SDS011;9900;48.738;9.306;2023-01-24T13:58:25;11.80;;;6.70;;
4652;SDS011;9900;48.738;9.306;2023-01-24T14:00:55;11.00;;;7.47;;
4652;SDS011;9900;48.738;9.306;2023-01-24T14:03:27;12.00;;;6.30;;
4652;SDS011;9900;48.738;9.306;2023-01-24T14:11:54;8.90;;;5.87;;
4652;SDS011;9900;48.738;9.306;2023-01-24T14:14:26;21.20;;;6.83;;
4652;SDS011;9900;48.738;9.306;2023-01-24T14:16:59;9.23;;;6.73;;
4652;SDS011;9900;48.738;9.306;2023-01-24T14:19:52;11.30;;;7.43;;
4652;SDS011;9900;48.738;9.306;2023-01-24T14:22:27;11.33;;;6.53;;
4652;SDS011;9900;48.738;9.306;2023-01-24T14:25:23;10.23;;;7.10;;
4652;SDS011;9900;48.738;9.306;2023-01-24T14:27:57;10.53;;;7.43;;
4652;SDS011;9900;48.738;9.306;2023-01-24T14:30:29;11.20;;;7.23;;
4652;SDS011;9900;48.738;9.306;2023-01-24T14:33:01;10.47;;;7.07;;
4652;SDS011;9900;48.738;9.306;2023-01-24T14:35:35;9.97;;;6.43;;
4652;SDS011;9900;48.738;9.306;2023-01-24T14:38:18;8.80;;;6.07;;
4652;SDS011;9900;48.738;9.306;2023-01-24T14:40:48;12.37;;;7.60;;
4652;SDS011;9900;48.738;9.306;2023-01-24T14:43:18;16.00;;;7.37;;
4652;SDS011;9900;48.738;9.306;2023-01-24T14:45:48;10.90;;;7.23;;
4652;SDS011;9900;48.738;9.306;2023-01-24T14:48:19;12.43;;;8.10;;
4652;SDS011;9900;48.738;9.306;2023-01-24T14:50:57;9.67;;;7.37;;
4652;SDS011;9900;48.738;9.306;2023-01-24T14:53:29;9.90;;;6.70;;
4652;SDS011;9900;48.738;9.306;2023-01-24T14:56:00;12.90;;;7.20;;
4652;SDS011;9900;48.738;9.306;2023-01-24T14:58:29;10.80;;;6.77;;
4652;SDS011;9900;48.738;9.306;2023-01-24T15:01:00;11.27;;;7.10;;
4652;SDS011;9900;48.738;9.306;2023-01-24T15:03:30;9.23;;;7.20;;
4652;SDS011;9900;48.738;9.306;2023-01-24T15:06:00;9.33;;;7.00;;
4652;SDS011;9900;48.738;9.306;2023-01-24T15:08:31;11.73;;;7.50;;
4652;SDS011;9900;48.738;9.306;2023-01-24T15:11:02;11.90;;;7.20;;
4652;SDS011;9900;48.738;9.306;2023-01-24T15:13:33;12.10;;;6.60;;
4652;SDS011;9900;48.738;9.306;2023-01-24T15:16:04;9.27;;;6.37;;
4652;SDS011;9900;48.738;9.306;2023-01-24T15:18:43;14.53;;;7.57;;
4652;SDS011;9900;48.738;9.306;2023-01-24T15:21:21;14.20;;;7.73;;
4652;SDS011;9900;48.738;9.306;2023-01-24T15:23:56;14.13;;;8.30;;
4652;SDS011;9900;48.738;9.306;2023-01-24T15:26:40;12.17;;;8.17;;
4652;SDS011;9900;48.738;9.306;2023-01-24T15:32:27;10.60;;;6.90;;
4652;SDS011;9900;48.738;9.306;2023-01-24T15:43:46;11.33;;;7.20;;
4652;SDS011;9900;48.738;9.306;2023-01-24T15:46:26;9.50;;;6.97;;
4652;SDS011;9900;48.738;9.306;2023-01-24T15:49:27;11.80;;;7.17;;
4652;SDS011;9900;48.738;9.306;2023-01-24T15:52:20;12.03;;;8.03;;
4652;SDS011;9900;48.738;9.306;2023-01-24T15:54:50;17.73;;;6.87;;
4652;SDS011;9900;48.738;9.306;2023-01-24T15:57:26;9.57;;;7.10;;
4652;SDS011;9900;48.738;9.306;2023-01-24T15:59:58;12.70;;;8.07;;
4652;SDS011;9900;48.738;9.306;2023-01-24T16:02:28;12.80;;;8.07;;
4652;SDS011;9900;48.738;9.306;2023-01-24T16:04:57;10.57;;;7.50;;
4652;SDS011;9900;48.738;9.306;2023-01-24T16:07:26;13.53;;;8.43;;
4652;SDS011;9900;48.738;9.306;2023-01-24T16:09:54;11.43;;;7.33;;